Time;durP1;ratioP1;P1;durP2;ratioP2;P2;SDS_P1;SDS_P2;PMS_P1;PMS_P2;Temp;Humidity;BMP_temperature;BMP_pressure;BME280_temperature;BME280_humidity;BME280_pressure;Samples;Min_cycle;Max_cycle;Signal;HPM_P1;HPM_P2
2022/08/19 00:02:04;;;;;;;14.35;6.82;;;26.40;75.80;;;;;;5060965;28;20199;-76
2022/08/19 00:04:36;;;;;;;11.50;6.57;;;26.40;76.00;;;;;;5056089;28;20198;-76
2022/08/19 00:07:08;;;;;;;10.15;6.32;;;26.40;76.00;;;;;;5057775;28;20194;-76
2022/08/19 00:09:36;;;;;;;16.55;6.93;;;26.40;76.10;;;;;;5056236;28;20194;-76
2022/08/19 00:12:07;;;;;;;13.10;6.90;;;26.40;76.20;;;;;;5058529;28;21909;-76
2022/08/19 00:14:35;;;;;;;12.68;7.22;;;26.30;76.10;;;;;;5063987;28;20186;-76
2022/08/19 00:17:06;;;;;;;13.63;6.97;;;26.30;76.10;;;;;;5061363;28;20195;-76
2022/08/19 00:19:35;;;;;;;12.57;6.75;;;26.30;76.20;;;;;;5058047;28;20203;-76
2022/08/19 00:22:05;;;;;;;15.75;6.72;;;26.30;76.30;;;;;;5059245;28;20204;-75
2022/08/19 00:24:46;;;;;;;11.70;7.30;;;26.20;76.20;;;;;;5061729;28;20648;-77
2022/08/19 00:27:19;;;;;;;11.27;7.47;;;26.20;76.30;;;;;;5054099;28;20197;-76
2022/08/19 00:29:54;;;;;;;14.25;7.40;;;26.20;76.30;;;;;;5057514;28;20688;-76
2022/08/19 00:32:26;;;;;;;13.73;8.35;;;26.20;76.40;;;;;;5053046;28;20257;-77
2022/08/19 00:34:54;;;;;;;13.45;7.43;;;26.10;76.50;;;;;;5055847;28;20190;-76
2022/08/19 00:37:28;;;;;;;12.27;8.15;;;26.10;76.50;;;;;;5058999;28;20209;-76
2022/08/19 00:40:00;;;;;;;14.07;8.07;;;26.10;76.60;;;;;;5056481;28;20752;-76
2022/08/19 00:42:30;;;;;;;15.93;7.93;;;26.10;76.70;;;;;;5057442;28;20191;-76
2022/08/19 00:45:00;;;;;;;12.93;7.10;;;26.10;76.80;;;;;;5051101;28;20195;-76
2022/08/19 00:47:29;;;;;;;13.00;8.15;;;26.00;76.90;;;;;;5060658;28;20667;-76
2022/08/19 00:49:59;;;;;;;13.85;7.05;;;26.00;77.10;;;;;;5061900;28;20191;-76
2022/08/19 00:52:35;;;;;;;13.13;7.63;;;26.00;77.30;;;;;;5057918;28;20190;-75
2022/08/19 00:55:11;;;;;;;11.20;6.68;;;25.90;77.30;;;;;;5058218;28;20182;-76
2022/08/19 00:57:46;;;;;;;12.70;6.97;;;25.90;77.50;;;;;;5051168;28;20225;-76
2022/08/19 01:00:24;;;;;;;13.48;7.50;;;25.80;77.60;;;;;;5059444;28;20206;-77
2022/08/19 01:02:53;;;;;;;19.13;8.63;;;25.80;77.70;;;;;;5058849;28;20838;-76
2022/08/19 01:05:29;;;;;;;10.68;7.32;;;25.80;77.80;;;;;;5057008;28;20660;-78
2022/08/19 01:08:00;;;;;;;15.65;8.30;;;25.80;78.10;;;;;;5058092;28;20193;-75
2022/08/19 01:10:33;;;;;;;15.45;7.57;;;25.70;78.10;;;;;;5055878;28;20194;-75
2022/08/19 01:13:15;;;;;;;13.45;7.72;;;25.70;78.20;;;;;;5055446;28;20186;-76
2022/08/19 01:15:51;;;;;;;15.27;8.07;;;25.70;78.40;;;;;;5056142;28;20182;-76
2022/08/19 01:18:21;;;;;;;17.95;9.10;;;25.60;78.40;;;;;;5061091;28;20811;-76
2022/08/19 01:20:52;;;;;;;11.80;7.38;;;25.60;78.40;;;;;;5059562;28;20236;-75
2022/08/19 01:23:42;;;;;;;14.70;7.90;;;25.60;78.50;;;;;;5050204;28;21154;-76
2022/08/19 01:26:13;;;;;;;13.88;8.13;;;25.60;78.60;;;;;;5057092;28;20750;-76
2022/08/19 01:28:43;;;;;;;13.82;8.13;;;25.50;78.70;;;;;;5058741;28;20213;-76
2022/08/19 01:31:20;;;;;;;16.30;7.97;;;25.50;78.80;;;;;;5053837;28;20222;-76
2022/08/19 01:33:57;;;;;;;17.13;7.93;;;25.50;79.00;;;;;;5054623;28;20190;-77
2022/08/19 01:36:30;;;;;;;14.02;7.72;;;25.50;79.10;;;;;;5048701;28;20191;-76
2022/08/19 01:39:00;;;;;;;13.70;8.43;;;25.40;79.20;;;;;;5056617;28;20179;-75
2022/08/19 01:41:29;;;;;;;13.82;7.88;;;25.40;79.50;;;;;;5056940;28;20218;-76
2022/08/19 01:44:03;;;;;;;16.88;8.73;;;25.40;79.70;;;;;;5058540;28;20667;-77
2022/08/19 01:46:48;;;;;;;12.30;8.30;;;25.40;79.80;;;;;;5058848;28;20190;-76
2022/08/19 01:49:17;;;;;;;14.27;8.98;;;25.40;79.90;;;;;;5057268;28;20198;-76
2022/08/19 01:51:46;;;;;;;12.15;8.25;;;25.30;79.80;;;;;;5059884;28;20201;-76
2022/08/19 01:54:18;;;;;;;17.15;8.85;;;25.40;80.00;;;;;;5060570;28;20197;-76
2022/08/19 01:57:00;;;;;;;17.00;9.07;;;25.40;80.10;;;;;;5058586;28;20196;-76
2022/08/19 01:59:30;;;;;;;15.00;8.68;;;25.30;80.10;;;;;;5056641;28;20182;-76
2022/08/19 02:01:59;;;;;;;14.75;9.13;;;25.30;80.10;;;;;;5053291;28;20195;-76
2022/08/19 02:04:27;;;;;;;13.48;8.60;;;25.30;80.10;;;;;;5055609;28;20225;-76
2022/08/19 02:06:56;;;;;;;15.80;8.55;;;25.30;80.10;;;;;;5059836;28;20217;-75
2022/08/19 02:09:25;;;;;;;13.27;7.97;;;25.30;80.20;;;;;;5058055;28;20202;-75
2022/08/19 02:11:54;;;;;;;17.20;8.55;;;25.30;80.40;;;;;;5055161;28;20213;-76
2022/08/19 02:14:22;;;;;;;13.88;8.45;;;25.20;80.30;;;;;;5060275;28;20195;-76
2022/08/19 02:16:51;;;;;;;14.63;8.43;;;25.20;80.50;;;;;;5062783;28;20216;-76
2022/08/19 02:19:21;;;;;;;16.27;9.50;;;25.20;80.60;;;;;;5062980;28;20436;-76
2022/08/19 02:21:58;;;;;;;17.33;8.60;;;25.20;82.10;;;;;;5059199;28;20195;-75
2022/08/19 02:24:28;;;;;;;14.30;8.45;;;25.20;81.80;;;;;;5061997;28;20186;-76
2022/08/19 02:26:58;;;;;;;16.08;8.27;;;25.20;81.80;;;;;;5060072;28;20195;-77
2022/08/19 02:29:26;;;;;;;15.40;9.02;;;25.20;81.80;;;;;;5061681;28;20197;-76
2022/08/19 02:31:57;;;;;;;16.33;9.55;;;25.20;81.80;;;;;;5051864;28;20240;-76
2022/08/19 02:34:26;;;;;;;14.80;9.23;;;25.10;81.80;;;;;;5064336;28;20196;-76
2022/08/19 02:36:54;;;;;;;13.30;8.35;;;25.10;81.80;;;;;;5062966;28;20201;-76
2022/08/19 02:39:24;;;;;;;16.10;8.25;;;25.10;81.90;;;;;;5062716;28;20237;-77
2022/08/19 02:41:54;;;;;;;16.20;8.68;;;25.00;81.90;;;;;;5056729;28;20218;-77
2022/08/19 02:44:23;;;;;;;15.48;8.07;;;25.00;82.10;;;;;;5062233;28;20202;-76
2022/08/19 02:46:58;;;;;;;16.83;8.32;;;25.00;82.10;;;;;;5056151;28;20190;-76
2022/08/19 02:49:27;;;;;;;16.83;8.88;;;25.00;82.20;;;;;;5063543;28;20500;-75
2022/08/19 02:51:55;;;;;;;13.73;8.52;;;25.00;82.20;;;;;;5062518;28;20392;-77
2022/08/19 02:54:24;;;;;;;14.10;8.18;;;25.00;82.30;;;;;;5063672;28;20194;-76
2022/08/19 02:56:54;;;;;;;15.95;8.57;;;24.90;83.20;;;;;;5063666;28;20304;-77
2022/08/19 02:59:22;;;;;;;17.08;9.45;;;24.90;82.40;;;;;;5064322;28;20194;-76
2022/08/19 03:01:55;;;;;;;14.27;8.13;;;24.90;82.40;;;;;;5052989;28;20230;-77
2022/08/19 03:04:24;;;;;;;14.77;8.40;;;24.90;82.50;;;;;;5060571;28;20285;-75
2022/08/19 03:06:54;;;;;;;16.30;8.93;;;24.90;82.50;;;;;;5062670;28;20273;-74
2022/08/19 03:09:30;;;;;;;15.10;9.25;;;24.90;82.60;;;;;;5060551;28;20183;-77
2022/08/19 03:12:00;;;;;;;13.75;8.23;;;24.90;82.60;;;;;;5060470;28;20190;-76
2022/08/19 03:14:31;;;;;;;15.65;8.45;;;24.90;82.70;;;;;;5055530;28;21278;-76
2022/08/19 03:17:04;;;;;;;14.30;8.82;;;24.80;82.60;;;;;;5057892;28;20206;-76
2022/08/19 03:19:33;;;;;;;17.23;8.50;;;24.90;82.70;;;;;;5060216;28;20198;-76
2022/08/19 03:22:02;;;;;;;13.32;8.88;;;24.80;82.70;;;;;;5061185;28;21454;-76
2022/08/19 03:24:30;;;;;;;14.25;8.80;;;24.80;82.70;;;;;;5062989;28;20198;-76
2022/08/19 03:27:04;;;;;;;16.75;8.38;;;24.80;82.70;;;;;;5058356;28;20198;-76
2022/08/19 03:29:38;;;;;;;15.88;9.55;;;24.80;82.80;;;;;;5057161;28;20572;-76
2022/08/19 03:32:16;;;;;;;13.90;8.30;;;24.80;82.90;;;;;;5051612;28;20633;-76
2022/08/19 03:35:01;;;;;;;15.45;8.98;;;24.80;82.90;;;;;;5055146;28;20652;-77
2022/08/19 03:37:32;;;;;;;12.55;8.50;;;24.80;82.90;;;;;;5055445;28;20198;-76
2022/08/19 03:40:03;;;;;;;14.30;8.38;;;24.80;82.90;;;;;;5057091;28;20194;-76
2022/08/19 03:42:37;;;;;;;14.15;9.10;;;24.80;83.00;;;;;;5059756;28;20679;-76
2022/08/19 03:45:19;;;;;;;16.60;8.23;;;24.80;83.10;;;;;;5053930;28;20198;-77
2022/08/19 03:47:48;;;;;;;16.80;8.63;;;24.80;83.20;;;;;;5056780;28;20189;-76
2022/08/19 03:50:16;;;;;;;15.73;8.77;;;24.70;83.20;;;;;;5059302;28;20198;-76
2022/08/19 03:52:50;;;;;;;14.38;9.32;;;24.70;83.20;;;;;;5059927;28;20649;-77
2022/08/19 03:55:20;;;;;;;15.32;9.52;;;24.80;83.40;;;;;;5059229;28;20201;-77
2022/08/19 03:57:51;;;;;;;14.43;9.00;;;24.70;83.40;;;;;;5051303;28;20202;-76
2022/08/19 04:00:26;;;;;;;14.88;8.75;;;24.70;83.40;;;;;;5056972;28;20190;-76
2022/08/19 04:03:04;;;;;;;12.30;8.15;;;24.70;83.40;;;;;;5057501;28;20190;-77
2022/08/19 04:05:33;;;;;;;12.98;8.48;;;24.70;83.50;;;;;;5054933;28;20273;-76
2022/08/19 04:08:01;;;;;;;13.73;8.68;;;24.70;83.60;;;;;;5060610;28;20194;-76
2022/08/19 04:10:33;;;;;;;14.60;9.27;;;24.70;83.60;;;;;;5062006;28;20205;-76
2022/08/19 04:13:06;;;;;;;15.82;9.57;;;24.70;83.80;;;;;;5058538;28;20225;-76
2022/08/19 04:15:41;;;;;;;16.77;8.80;;;24.70;84.00;;;;;;5056742;28;20221;-76
2022/08/19 04:18:10;;;;;;;13.93;8.65;;;24.70;84.00;;;;;;5059652;28;20193;-75
2022/08/19 04:20:44;;;;;;;14.68;8.38;;;24.80;84.10;;;;;;5057423;28;20261;-76
2022/08/19 04:23:16;;;;;;;16.20;8.52;;;24.80;84.20;;;;;;5058642;28;20198;-77
2022/08/19 04:25:47;;;;;;;19.75;8.98;;;24.80;84.10;;;;;;5060504;28;20190;-76
2022/08/19 04:28:17;;;;;;;15.85;9.00;;;24.80;84.10;;;;;;5057331;28;20707;-75
2022/08/19 04:30:52;;;;;;;14.05;8.88;;;24.80;84.20;;;;;;5058872;28;20216;-76
2022/08/19 04:33:23;;;;;;;14.95;8.80;;;24.90;84.20;;;;;;5054422;28;20226;-76
2022/08/19 04:35:57;;;;;;;13.93;8.63;;;24.90;84.20;;;;;;5048651;28;20659;-76
2022/08/19 04:38:33;;;;;;;12.73;8.00;;;24.90;84.20;;;;;;5058903;28;20861;-76
2022/08/19 04:43:51;;;;;;;14.63;8.27;;;25.00;84.30;;;;;;5053700;28;20244;-77
2022/08/19 04:46:20;;;;;;;13.82;8.88;;;25.00;84.20;;;;;;5056160;28;20636;-76
2022/08/19 04:49:08;;;;;;;14.80;8.70;;;25.00;84.20;;;;;;5055873;28;20193;-78
2022/08/19 04:51:43;;;;;;;18.00;9.70;;;25.10;84.20;;;;;;5054656;28;20194;-76
2022/08/19 04:54:16;;;;;;;16.90;9.27;;;25.10;84.20;;;;;;5058174;28;20690;-76
2022/08/19 04:57:06;;;;;;;26.48;10.18;;;25.20;84.40;;;;;;5059323;28;20193;-77
2022/08/19 04:59:40;;;;;;;26.15;10.75;;;25.20;84.20;;;;;;5058782;28;20256;-77
2022/08/19 05:02:10;;;;;;;16.83;9.32;;;25.20;84.20;;;;;;4999306;28;20317;-76
2022/08/19 05:04:40;;;;;;;21.70;9.18;;;25.30;84.30;;;;;;5056377;28;20202;-77
2022/08/19 05:07:10;;;;;;;16.45;8.43;;;25.30;84.20;;;;;;5059403;28;20281;-77
2022/08/19 05:09:39;;;;;;;16.20;8.95;;;25.40;84.30;;;;;;5058255;28;20183;-78
2022/08/19 05:12:28;;;;;;;16.98;9.10;;;25.40;84.20;;;;;;5059835;28;20247;-78
2022/08/19 05:14:58;;;;;;;17.27;9.25;;;25.40;84.20;;;;;;5059860;28;20193;-78
2022/08/19 05:17:28;;;;;;;20.85;9.35;;;25.50;84.10;;;;;;5058369;28;20932;-77
2022/08/19 05:22:52;;;;;;;11.77;7.78;;;25.60;83.90;;;;;;5058172;28;20213;-76
2022/08/19 05:25:22;;;;;;;15.48;8.15;;;25.60;83.80;;;;;;5056425;28;20193;-77
2022/08/19 05:27:53;;;;;;;12.63;7.30;;;25.70;83.80;;;;;;5061065;28;20852;-76
2022/08/19 05:30:30;;;;;;;12.07;7.95;;;25.80;83.70;;;;;;5056944;28;20217;-78
2022/08/19 05:33:14;;;;;;;14.88;8.52;;;25.80;83.60;;;;;;5059649;28;20234;-75
2022/08/19 05:35:43;;;;;;;15.85;8.05;;;25.90;83.70;;;;;;5060249;28;20742;-76
2022/08/19 05:38:13;;;;;;;16.50;8.10;;;26.00;83.70;;;;;;5059624;28;20199;-76
2022/08/19 05:40:45;;;;;;;14.95;7.95;;;26.00;83.70;;;;;;5058707;28;20191;-77
2022/08/19 05:43:16;;;;;;;12.15;7.40;;;26.10;83.80;;;;;;5054438;28;20217;-76
2022/08/19 05:49:45;;;;;;;12.77;6.85;;;26.20;83.60;;;;;;5056436;28;20324;-76
2022/08/19 05:52:15;;;;;;;12.25;7.85;;;26.30;83.50;;;;;;5066402;28;20206;-75
2022/08/19 05:58:07;;;;;;;18.20;6.90;;;26.40;83.30;;;;;;5275088;23;20230;-81
2022/08/19 06:00:35;;;;;;;15.25;7.93;;;26.50;83.10;;;;;;5018741;28;20828;-80
2022/08/19 06:03:04;;;;;;;13.05;7.72;;;26.60;83.70;;;;;;5023636;28;20691;-80
2022/08/19 06:05:42;;;;;;;15.20;7.38;;;26.60;82.70;;;;;;5016293;28;20191;-79
2022/08/19 06:08:20;;;;;;;11.98;6.55;;;26.70;82.50;;;;;;5014087;28;20551;-78
2022/08/19 06:11:17;;;;;;;13.25;7.15;;;26.80;82.20;;;;;;5023919;28;20199;-78
2022/08/19 06:13:50;;;;;;;12.13;7.05;;;26.90;81.40;;;;;;5020190;28;20200;-80
2022/08/19 06:16:21;;;;;;;15.00;6.53;;;26.90;81.20;;;;;;5016781;28;20191;-80
2022/08/19 06:18:52;;;;;;;9.63;6.32;;;27.00;80.90;;;;;;5021790;28;20198;-80
2022/08/19 06:21:27;;;;;;;12.88;6.75;;;27.10;80.80;;;;;;5026869;28;20198;-78
2022/08/19 06:23:56;;;;;;;9.90;6.50;;;27.20;80.60;;;;;;5019136;28;20220;-79
2022/08/19 06:26:26;;;;;;;12.48;6.43;;;27.20;80.40;;;;;;5012523;28;22063;-80
2022/08/19 06:28:54;;;;;;;13.35;6.57;;;27.30;80.10;;;;;;5025066;28;20203;-78
2022/08/19 06:31:25;;;;;;;12.80;6.72;;;27.40;79.90;;;;;;5017377;28;20204;-80
2022/08/19 06:33:54;;;;;;;13.02;6.75;;;27.50;79.70;;;;;;5019838;28;20474;-80
2022/08/19 06:36:31;;;;;;;10.30;6.05;;;27.60;79.60;;;;;;5013399;28;20196;-78
2022/08/19 06:39:00;;;;;;;8.85;5.38;;;27.70;79.40;;;;;;5022695;28;20195;-78
2022/08/19 06:41:29;;;;;;;8.80;5.88;;;27.70;78.70;;;;;;5028600;28;20202;-78
2022/08/19 06:43:59;;;;;;;10.98;6.53;;;27.80;78.50;;;;;;5026769;28;20230;-78
2022/08/19 06:46:28;;;;;;;14.75;6.35;;;27.90;78.40;;;;;;5025167;28;20195;-78
2022/08/19 06:49:02;;;;;;;11.50;6.03;;;27.90;78.10;;;;;;5023018;28;20187;-78
2022/08/19 06:51:34;;;;;;;11.48;6.35;;;28.00;77.90;;;;;;5028082;28;20226;-78
2022/08/19 06:54:10;;;;;;;10.45;5.82;;;28.10;77.60;;;;;;5011097;28;20221;-78
2022/08/19 06:56:47;;;;;;;8.75;5.43;;;28.20;77.40;;;;;;5024180;28;20199;-77
2022/08/19 06:59:19;;;;;;;11.60;6.28;;;28.30;76.80;;;;;;5024204;28;20290;-80
2022/08/19 07:01:51;;;;;;;10.10;5.40;;;28.40;76.00;;;;;;5020815;28;20198;-79
2022/08/19 07:04:22;;;;;;;8.07;5.75;;;28.40;75.80;;;;;;5025222;28;20263;-80
2022/08/19 07:06:59;;;;;;;8.18;5.85;;;28.50;75.70;;;;;;5027209;28;20587;-78
2022/08/19 07:09:46;;;;;;;8.95;5.57;;;28.60;75.10;;;;;;5013400;28;20230;-82
2022/08/19 07:12:31;;;;;;;11.35;5.60;;;28.60;74.70;;;;;;5027349;28;20265;-80
2022/08/19 07:15:00;;;;;;;13.35;5.63;;;28.70;74.40;;;;;;5017016;28;20208;-80
2022/08/19 07:17:30;;;;;;;11.38;5.55;;;28.80;74.10;;;;;;5016391;28;20286;-80
2022/08/19 07:20:01;;;;;;;8.10;5.07;;;28.90;73.90;;;;;;5015193;28;20203;-79
2022/08/19 07:22:38;;;;;;;9.15;5.07;;;28.90;73.70;;;;;;5006371;28;20219;-79
2022/08/19 07:25:08;;;;;;;8.43;5.88;;;29.00;73.00;;;;;;5011520;28;20210;-78
2022/08/19 07:27:39;;;;;;;9.32;5.45;;;29.00;72.90;;;;;;5012331;28;20294;-82
2022/08/19 07:30:10;;;;;;;9.90;5.70;;;29.10;72.50;;;;;;5017075;28;20191;-79
2022/08/19 07:32:39;;;;;;;7.93;5.25;;;29.20;72.00;;;;;;5016828;28;20215;-82
2022/08/19 07:35:09;;;;;;;8.18;4.45;;;29.30;71.60;;;;;;5024377;28;20274;-80
2022/08/19 07:37:43;;;;;;;6.85;4.68;;;29.30;71.20;;;;;;5009643;28;20838;-79
2022/08/19 07:40:14;;;;;;;8.57;4.65;;;29.40;71.20;;;;;;5015255;28;20294;-78
2022/08/19 07:42:43;;;;;;;7.53;5.03;;;29.50;71.30;;;;;;5021115;28;20231;-79
2022/08/19 07:45:11;;;;;;;8.77;4.68;;;29.50;70.60;;;;;;5021286;28;20207;-80
2022/08/19 07:47:40;;;;;;;7.70;5.00;;;29.60;70.30;;;;;;5021059;28;20667;-79
2022/08/19 07:50:26;;;;;;;12.07;4.78;;;29.60;70.50;;;;;;5015806;28;20640;-80
2022/08/19 07:52:56;;;;;;;9.52;4.93;;;29.60;70.30;;;;;;5023380;28;20292;-80
2022/08/19 07:55:26;;;;;;;6.43;4.30;;;29.70;70.10;;;;;;5017330;28;20196;-81
2022/08/19 07:58:17;;;;;;;9.05;4.82;;;29.70;70.00;;;;;;5024892;28;20570;-79
2022/08/19 08:00:48;;;;;;;6.53;4.50;;;29.80;69.00;;;;;;5019998;28;20203;-79
2022/08/19 08:03:19;;;;;;;9.48;4.80;;;29.80;69.10;;;;;;5014954;28;20243;-82
2022/08/19 08:11:22;;;;;;;10.15;4.47;;;30.00;68.70;;;;;;5017341;28;20917;-82
2022/08/19 08:13:58;;;;;;;7.03;4.38;;;30.00;68.40;;;;;;5013282;28;20196;-78
2022/08/19 08:16:32;;;;;;;10.90;4.28;;;30.10;68.40;;;;;;5011750;28;20207;-78
2022/08/19 08:19:02;;;;;;;9.85;4.72;;;30.10;68.20;;;;;;5022812;28;20781;-80
2022/08/19 08:21:43;;;;;;;8.25;5.10;;;30.20;68.30;;;;;;5022058;28;20215;-81
2022/08/19 08:24:14;;;;;;;7.38;4.85;;;30.20;68.20;;;;;;5022325;28;20883;-80
2022/08/19 08:26:44;;;;;;;9.75;4.57;;;30.30;67.40;;;;;;5023687;28;20286;-82
2022/08/19 08:29:15;;;;;;;8.02;4.65;;;30.30;67.00;;;;;;5021886;28;20184;-78
2022/08/19 08:31:45;;;;;;;7.22;4.35;;;30.40;66.30;;;;;;5017215;28;20557;-81
2022/08/19 08:34:25;;;;;;;10.98;5.35;;;30.40;66.50;;;;;;5023001;28;20206;-81
2022/08/19 08:36:54;;;;;;;8.60;4.28;;;30.40;65.90;;;;;;5015802;28;20187;-79
2022/08/19 08:39:42;;;;;;;6.45;4.35;;;30.40;65.20;;;;;;5014972;28;20954;-82
2022/08/19 08:42:18;;;;;;;6.93;4.00;;;30.50;64.80;;;;;;5018900;28;20195;-81
2022/08/19 08:44:57;;;;;;;7.50;4.50;;;30.50;64.50;;;;;;5020066;28;20218;-79
2022/08/19 08:47:30;;;;;;;8.05;4.40;;;30.60;64.50;;;;;;5019202;28;20198;-81
2022/08/19 08:50:03;;;;;;;9.98;4.60;;;30.60;65.20;;;;;;5018408;28;20207;-77
2022/08/19 08:52:42;;;;;;;9.50;4.65;;;30.70;64.00;;;;;;5018949;28;20198;-76
2022/08/19 08:55:15;;;;;;;9.20;4.18;;;30.70;64.30;;;;;;5006299;28;20819;-76
2022/08/19 08:57:54;;;;;;;6.35;4.20;;;30.70;64.30;;;;;;5019257;28;20298;-75
2022/08/19 09:00:26;;;;;;;6.78;4.57;;;30.80;64.20;;;;;;5008026;28;20840;-76
2022/08/19 09:02:55;;;;;;;6.60;4.13;;;30.80;63.50;;;;;;5009287;28;20188;-75
2022/08/19 09:05:26;;;;;;;5.93;3.88;;;30.90;63.10;;;;;;5008850;28;20254;-76
2022/08/19 09:08:11;;;;;;;8.23;4.70;;;30.90;62.40;;;;;;5027364;28;20191;-75
2022/08/19 09:11:06;;;;;;;10.70;4.63;;;31.00;62.50;;;;;;5027138;28;20192;-76
2022/08/19 09:13:47;;;;;;;7.05;4.90;;;31.00;62.50;;;;;;5017629;28;20196;-76
2022/08/19 09:16:20;;;;;;;9.13;4.65;;;31.10;61.70;;;;;;5014526;28;20202;-76
2022/08/19 09:19:07;;;;;;;7.45;4.28;;;31.10;62.20;;;;;;5014284;28;20923;-75
2022/08/19 09:21:36;;;;;;;9.85;4.47;;;31.20;62.20;;;;;;5012859;28;20196;-75
2022/08/19 09:24:08;;;;;;;7.18;4.60;;;31.20;61.90;;;;;;5020106;28;20221;-76
2022/08/19 09:26:37;;;;;;;8.80;4.10;;;31.20;62.70;;;;;;5018100;28;20637;-75
2022/08/19 09:29:21;;;;;;;7.38;5.22;;;31.30;61.50;;;;;;5018376;28;20194;-77
2022/08/19 09:31:50;;;;;;;8.13;4.80;;;31.40;61.40;;;;;;5019431;28;20192;-75
2022/08/19 09:34:23;;;;;;;14.10;4.78;;;31.40;61.30;;;;;;5014485;28;20204;-74
2022/08/19 09:36:52;;;;;;;8.00;4.38;;;31.50;61.10;;;;;;5012350;28;20192;-74
2022/08/19 09:39:23;;;;;;;8.15;4.18;;;31.50;61.10;;;;;;5011319;28;20200;-74
2022/08/19 09:41:52;;;;;;;8.05;4.85;;;31.60;61.00;;;;;;5015786;28;20199;-74
2022/08/19 09:44:21;;;;;;;6.80;4.80;;;31.60;60.90;;;;;;5017219;28;20223;-76
2022/08/19 09:46:57;;;;;;;10.43;4.57;;;31.70;60.80;;;;;;5016754;28;20199;-76
2022/08/19 09:49:26;;;;;;;6.22;4.82;;;31.70;60.30;;;;;;5016927;28;20198;-75
2022/08/19 09:51:55;;;;;;;8.15;4.97;;;31.70;59.80;;;;;;5016346;28;20290;-78
2022/08/19 09:54:25;;;;;;;8.80;5.40;;;31.70;59.80;;;;;;5015729;28;20293;-76
2022/08/19 09:56:55;;;;;;;8.30;4.43;;;31.70;60.20;;;;;;5009660;28;20829;-77
2022/08/19 09:59:24;;;;;;;9.93;4.35;;;31.70;60.30;;;;;;5007015;28;20188;-75
2022/08/19 10:01:56;;;;;;;8.27;4.78;;;31.80;59.60;;;;;;5013965;28;20225;-74
2022/08/19 10:07:20;;;;;;;7.47;4.28;;;32.00;59.70;;;;;;4982186;28;20688;-73
2022/08/19 10:10:05;;;;;;;5.88;4.40;;;32.00;59.60;;;;;;5011010;28;20209;-76
2022/08/19 10:12:36;;;;;;;8.27;4.75;;;32.20;59.70;;;;;;5020913;28;20655;-76
2022/08/19 10:15:08;;;;;;;11.10;5.55;;;32.20;59.10;;;;;;5015615;28;20250;-75
2022/08/19 10:17:37;;;;;;;11.25;4.82;;;32.20;58.70;;;;;;5016047;28;20203;-76
2022/08/19 10:20:06;;;;;;;9.15;4.78;;;32.30;59.20;;;;;;5017639;28;20196;-78
2022/08/19 10:22:37;;;;;;;13.13;5.90;;;32.40;59.30;;;;;;5018358;28;20721;-76
2022/08/19 10:25:07;;;;;;;11.02;4.75;;;32.50;58.60;;;;;;5015866;28;20299;-73
2022/08/19 10:27:38;;;;;;;6.75;4.40;;;32.50;58.80;;;;;;5020315;28;20195;-76
2022/08/19 10:30:09;;;;;;;8.23;4.50;;;32.60;58.40;;;;;;5017549;28;20227;-77
2022/08/19 10:32:40;;;;;;;6.70;4.25;;;32.60;58.50;;;;;;5013034;28;20184;-75
2022/08/19 10:35:14;;;;;;;5.80;4.60;;;32.60;58.50;;;;;;5016790;28;20234;-77
2022/08/19 10:37:49;;;;;;;12.52;4.90;;;32.60;57.80;;;;;;5016027;28;20521;-76
2022/08/19 10:40:28;;;;;;;7.95;4.93;;;32.70;57.60;;;;;;5016897;28;20649;-75
2022/08/19 10:42:58;;;;;;;6.50;4.55;;;32.60;57.90;;;;;;5024026;28;20603;-76
2022/08/19 10:45:27;;;;;;;9.63;5.43;;;32.60;58.20;;;;;;5022359;28;20314;-75
2022/08/19 10:47:59;;;;;;;7.15;4.53;;;32.50;58.00;;;;;;5017493;28;20202;-76
2022/08/19 10:53:17;;;;;;;9.35;4.78;;;32.40;58.00;;;;;;5021077;28;20761;-77
2022/08/19 10:58:38;;;;;;;11.38;5.80;;;32.50;58.20;;;;;;5010366;28;20226;-80
2022/08/19 11:01:07;;;;;;;7.40;5.15;;;32.70;58.10;;;;;;5009028;28;20262;-74
2022/08/19 11:03:38;;;;;;;9.45;4.88;;;32.70;57.80;;;;;;5011499;28;20615;-74
2022/08/19 11:06:09;;;;;;;9.40;5.00;;;32.70;57.30;;;;;;5010031;28;20798;-76
2022/08/19 11:08:38;;;;;;;8.07;4.65;;;32.80;57.70;;;;;;5022845;28;20193;-79
2022/08/19 11:11:09;;;;;;;6.43;4.55;;;32.90;58.00;;;;;;5013951;28;20197;-80
2022/08/19 11:13:42;;;;;;;12.50;5.88;;;33.00;57.30;;;;;;5014040;28;20658;-77
2022/08/19 11:16:13;;;;;;;7.18;5.18;;;32.90;56.60;;;;;;5023998;28;20199;-77
2022/08/19 11:18:45;;;;;;;9.60;5.18;;;32.90;57.00;;;;;;5024566;28;20188;-77
2022/08/19 11:21:16;;;;;;;8.45;5.03;;;33.00;57.20;;;;;;5013116;28;20191;-77
2022/08/19 11:23:46;;;;;;;6.53;4.32;;;32.90;57.10;;;;;;5013760;28;20226;-79
2022/08/19 11:26:17;;;;;;;7.25;4.80;;;32.90;57.10;;;;;;5024060;28;20223;-77
2022/08/19 11:28:47;;;;;;;9.57;5.53;;;32.90;56.90;;;;;;5019805;28;20195;-77
2022/08/19 11:31:18;;;;;;;7.15;4.53;;;32.80;57.60;;;;;;5020105;28;20198;-78
2022/08/19 11:33:50;;;;;;;7.97;4.53;;;32.80;57.10;;;;;;5022327;28;20195;-77
2022/08/19 11:36:20;;;;;;;5.80;4.13;;;32.90;57.30;;;;;;5021335;28;20194;-79
2022/08/19 11:38:49;;;;;;;6.47;4.43;;;33.00;57.30;;;;;;5014498;28;20207;-77
2022/08/19 11:41:19;;;;;;;6.97;4.70;;;33.00;56.80;;;;;;5019638;28;20203;-77
2022/08/19 11:43:49;;;;;;;10.43;4.25;;;33.00;56.60;;;;;;5019950;28;20586;-77
2022/08/19 11:46:18;;;;;;;7.40;4.25;;;33.10;56.70;;;;;;5015322;28;20302;-77
2022/08/19 11:48:47;;;;;;;8.85;4.57;;;33.20;56.50;;;;;;5018359;28;20207;-76
2022/08/19 11:51:22;;;;;;;5.68;4.40;;;33.20;56.20;;;;;;5009419;28;20206;-77
2022/08/19 11:54:02;;;;;;;6.85;4.55;;;33.30;54.60;;;;;;5001125;28;20203;-77
2022/08/19 11:56:31;;;;;;;7.30;3.95;;;33.40;53.90;;;;;;5014072;28;21212;-77
2022/08/19 11:59:02;;;;;;;7.15;4.60;;;33.40;54.40;;;;;;5018430;28;20220;-75
2022/08/19 12:01:31;;;;;;;7.38;3.88;;;33.50;54.70;;;;;;5021552;28;20192;-76
2022/08/19 12:04:00;;;;;;;7.72;4.72;;;33.50;54.80;;;;;;5018462;28;20191;-76
2022/08/19 12:06:32;;;;;;;7.20;4.07;;;33.40;54.90;;;;;;5017182;28;20226;-76
2022/08/19 12:09:04;;;;;;;7.80;4.65;;;33.40;54.80;;;;;;5010031;28;20195;-77
2022/08/19 12:11:33;;;;;;;6.68;3.92;;;33.40;54.10;;;;;;5024809;28;20195;-77
2022/08/19 12:14:03;;;;;;;9.02;4.68;;;33.40;53.90;;;;;;5013155;28;20199;-77
2022/08/19 12:16:34;;;;;;;13.02;5.35;;;33.40;54.20;;;;;;5009279;28;20199;-78
2022/08/19 12:19:09;;;;;;;9.07;4.35;;;33.40;54.40;;;;;;5014172;28;20205;-76
2022/08/19 12:21:38;;;;;;;11.70;5.03;;;33.30;54.40;;;;;;5019415;28;20941;-77
2022/08/19 12:24:07;;;;;;;17.90;5.22;;;33.30;54.50;;;;;;5014118;28;20203;-77
2022/08/19 12:26:38;;;;;;;15.88;5.00;;;33.30;54.70;;;;;;4984661;28;20808;-76
2022/08/19 12:29:28;;;;;;;6.35;3.78;;;33.40;55.00;;;;;;5018538;28;20196;-76
2022/08/19 12:32:01;;;;;;;7.88;4.22;;;33.40;55.10;;;;;;5019107;28;20184;-77
2022/08/19 12:34:33;;;;;;;11.88;4.57;;;33.50;55.20;;;;;;5016440;28;20196;-76
2022/08/19 12:37:05;;;;;;;6.53;3.85;;;33.50;54.30;;;;;;5017696;28;20199;-77
2022/08/19 12:39:36;;;;;;;6.20;4.43;;;33.60;53.90;;;;;;5017588;28;20195;-77
2022/08/19 12:42:08;;;;;;;6.93;3.90;;;33.70;53.90;;;;;;5015501;28;20196;-77
2022/08/19 12:44:39;;;;;;;6.15;3.58;;;33.70;54.00;;;;;;5019337;28;20346;-77
2022/08/19 12:47:11;;;;;;;6.93;4.13;;;33.70;53.40;;;;;;5021038;28;20211;-77
2022/08/19 12:49:41;;;;;;;5.80;3.53;;;33.60;53.10;;;;;;5014423;28;20184;-77
2022/08/19 12:52:24;;;;;;;4.43;3.30;;;33.60;53.10;;;;;;5016734;28;20191;-76
2022/08/19 12:54:53;;;;;;;6.45;3.95;;;33.60;52.70;;;;;;5009398;28;20211;-77
2022/08/19 12:57:23;;;;;;;7.07;3.88;;;33.60;52.10;;;;;;5016976;28;20226;-77
2022/08/19 13:00:07;;;;;;;6.72;3.80;;;33.50;52.40;;;;;;5014745;28;20207;-77
2022/08/19 13:02:36;;;;;;;6.55;4.00;;;33.50;52.80;;;;;;5016858;28;20222;-76
2022/08/19 13:05:08;;;;;;;5.70;3.97;;;33.50;53.00;;;;;;5016730;28;20206;-76
2022/08/19 13:07:38;;;;;;;7.20;4.07;;;33.40;53.20;;;;;;5011653;28;20196;-77
2022/08/19 13:10:08;;;;;;;7.00;3.90;;;33.50;53.50;;;;;;5018747;28;20196;-76
2022/08/19 13:12:37;;;;;;;6.47;3.85;;;33.60;53.70;;;;;;5014666;28;20192;-76
2022/08/19 13:15:09;;;;;;;6.40;4.10;;;33.60;53.60;;;;;;4991470;28;20579;-77
2022/08/19 13:17:39;;;;;;;12.38;4.50;;;33.60;53.60;;;;;;5011216;28;20731;-77
2022/08/19 13:20:10;;;;;;;7.60;3.75;;;33.60;53.50;;;;;;5015915;28;20892;-78
2022/08/19 13:22:39;;;;;;;10.30;4.03;;;33.50;53.20;;;;;;5020380;28;20196;-76
2022/08/19 13:25:09;;;;;;;8.02;4.28;;;33.40;53.00;;;;;;5017396;28;20214;-77
2022/08/19 13:27:38;;;;;;;8.80;3.85;;;33.50;52.80;;;;;;5016996;28;20271;-77
2022/08/19 13:33:14;;;;;;;7.70;3.95;;;33.40;52.40;;;;;;5019644;28;20184;-76
2022/08/19 13:35:46;;;;;;;6.80;3.53;;;33.40;52.50;;;;;;5018406;28;20205;-76
2022/08/19 13:38:16;;;;;;;8.38;3.75;;;33.40;52.40;;;;;;5015659;28;20196;-76